createdAt,value
2022-09-07T00:00:53.899Z,6.68
2022-09-07T00:03:22.519Z,5.15
2022-09-07T00:05:52.666Z,6.30
2022-09-07T00:08:23.285Z,2.85
2022-09-07T00:10:57.744Z,6.35
2022-09-07T00:13:28.305Z,2.95
2022-09-07T00:15:56.580Z,4.65
2022-09-07T00:18:25.190Z,4.00
2022-09-07T00:20:59.691Z,3.97
2022-09-07T00:23:28.784Z,3.42
2022-09-07T00:26:02.054Z,3.53
2022-09-07T00:28:31.538Z,4.90
2022-09-07T00:30:59.947Z,4.93
2022-09-07T00:33:28.448Z,9.20
2022-09-07T00:35:56.586Z,6.93
2022-09-07T00:38:24.936Z,3.63
2022-09-07T00:40:53.274Z,8.35
2022-09-07T00:43:32.941Z,5.55
2022-09-07T00:46:01.401Z,3.72
2022-09-07T00:48:33.715Z,5.85
2022-09-07T00:51:06.268Z,4.00
2022-09-07T00:53:39.944Z,3.42
2022-09-07T00:56:08.557Z,9.02
2022-09-07T00:58:41.639Z,4.50
2022-09-07T01:01:10.272Z,5.53
2022-09-07T01:03:43.191Z,3.65
2022-09-07T01:06:16.805Z,3.38
2022-09-07T01:08:47.249Z,4.53
2022-09-07T01:11:15.166Z,5.97
2022-09-07T01:13:46.970Z,6.05
2022-09-07T01:16:27.325Z,7.97
2022-09-07T01:19:10.127Z,7.03
2022-09-07T01:21:58.227Z,3.90
2022-09-07T01:24:54.591Z,4.50
2022-09-07T01:28:04.056Z,5.22
2022-09-07T01:30:35.922Z,4.15
2022-09-07T01:35:48.846Z,6.40
2022-09-07T01:38:23.481Z,7.65
2022-09-07T01:40:58.048Z,7.70
2022-09-07T01:43:38.342Z,7.80
2022-09-07T01:46:17.561Z,6.97
2022-09-07T01:48:49.546Z,6.47
2022-09-07T01:51:20.033Z,6.00
2022-09-07T01:53:52.681Z,5.10
2022-09-07T01:58:57.153Z,5.97
2022-09-07T02:01:29.550Z,3.85
2022-09-07T02:04:03.958Z,4.72
2022-09-07T02:06:39.881Z,6.72
2022-09-07T02:09:14.186Z,4.50
2022-09-07T02:11:46.936Z,3.72
2022-09-07T02:14:23.015Z,7.80
2022-09-07T02:16:58.077Z,5.70
2022-09-07T02:19:29.836Z,7.15
2022-09-07T02:22:01.698Z,4.07
2022-09-07T02:24:35.259Z,4.90
2022-09-07T02:27:05.845Z,4.55
2022-09-07T02:29:35.494Z,5.28
2022-09-07T02:32:04.039Z,4.18
2022-09-07T02:34:32.565Z,8.52
2022-09-07T02:37:03.922Z,6.97
2022-09-07T02:39:32.232Z,4.80
2022-09-07T02:42:00.237Z,5.85
2022-09-07T02:44:34.624Z,3.40
2022-09-07T02:47:16.897Z,6.45
2022-09-07T02:50:01.246Z,5.55
2022-09-07T02:52:40.957Z,5.00
2022-09-07T02:55:16.881Z,5.72
2022-09-07T02:57:53.965Z,4.35
2022-09-07T03:00:26.033Z,12.30
2022-09-07T03:03:07.605Z,7.30
2022-09-07T03:05:43.446Z,3.50
2022-09-07T03:08:15.049Z,7.22
2022-09-07T03:10:44.681Z,6.28
2022-09-07T03:13:21.551Z,4.57
2022-09-07T03:15:54.963Z,5.13
2022-09-07T03:18:25.883Z,6.85
2022-09-07T03:20:54.536Z,6.82
2022-09-07T03:23:22.719Z,7.15
2022-09-07T03:25:51.093Z,5.80
2022-09-07T03:28:19.272Z,5.47
2022-09-07T03:30:48.001Z,5.13
2022-09-07T03:33:16.980Z,5.80
2022-09-07T03:35:47.278Z,7.03
2022-09-07T03:38:15.188Z,3.35
2022-09-07T03:40:43.022Z,8.27
2022-09-07T03:43:11.062Z,8.50
2022-09-07T03:45:38.826Z,6.63
2022-09-07T03:48:06.813Z,7.70
2022-09-07T03:50:34.920Z,7.70
2022-09-07T03:53:04.073Z,5.00
2022-09-07T03:55:31.844Z,7.75
2022-09-07T03:57:59.876Z,6.18
2022-09-07T04:00:27.662Z,6.68
2022-09-07T04:02:55.542Z,9.38
2022-09-07T04:05:24.004Z,6.18
2022-09-07T04:07:52.494Z,8.77
2022-09-07T04:10:21.775Z,12.68
2022-09-07T04:12:50.533Z,6.30
2022-09-07T04:15:18.320Z,5.13
2022-09-07T04:17:46.097Z,7.72
2022-09-07T04:20:14.253Z,6.88
2022-09-07T04:22:42.061Z,7.13
2022-09-07T04:25:10.224Z,6.95
2022-09-07T04:27:39.788Z,9.27
2022-09-07T04:30:08.676Z,4.28
2022-09-07T04:32:36.436Z,6.72
2022-09-07T04:35:04.637Z,5.40
2022-09-07T04:37:32.400Z,11.02
2022-09-07T04:40:00.250Z,7.25
2022-09-07T04:42:28.349Z,8.50
2022-09-07T04:44:57.829Z,6.45
2022-09-07T04:47:26.138Z,3.97
2022-09-07T04:49:54.229Z,7.00
2022-09-07T04:52:22.186Z,6.10
2022-09-07T04:54:50.600Z,5.93
2022-09-07T04:57:21.633Z,11.45
2022-09-07T04:59:51.911Z,6.80
2022-09-07T05:02:22.130Z,8.53
2022-09-07T05:04:53.357Z,5.82
2022-09-07T05:07:21.514Z,6.45
2022-09-07T05:09:52.819Z,10.90
2022-09-07T05:12:20.604Z,6.80
2022-09-07T05:14:49.104Z,6.45
2022-09-07T05:17:17.105Z,11.82
2022-09-07T05:19:46.737Z,7.10
2022-09-07T05:22:15.313Z,4.35
2022-09-07T05:24:43.054Z,5.20
2022-09-07T05:27:10.909Z,9.98
2022-09-07T05:32:27.043Z,8.43
2022-09-07T05:34:57.330Z,11.88
2022-09-07T05:37:25.130Z,11.23
2022-09-07T05:39:56.272Z,11.18
2022-09-07T05:42:24.358Z,7.63
2022-09-07T05:44:53.094Z,9.52
2022-09-07T05:47:20.857Z,7.70
2022-09-07T05:49:49.829Z,7.75
2022-09-07T05:52:20.505Z,9.00
2022-09-07T05:54:49.047Z,10.50
2022-09-07T05:57:17.276Z,6.75
2022-09-07T06:03:50.862Z,7.70
2022-09-07T06:06:19.856Z,10.40
2022-09-07T06:08:50.341Z,6.32
2022-09-07T06:11:20.090Z,13.48
2022-09-07T06:13:48.873Z,8.65
2022-09-07T06:16:18.375Z,13.80
2022-09-07T06:18:48.018Z,11.45
2022-09-07T06:21:17.939Z,9.43
2022-09-07T06:23:46.790Z,9.82
2022-09-07T06:26:17.316Z,6.43
2022-09-07T06:28:49.657Z,8.18
2022-09-07T06:31:20.811Z,12.75
2022-09-07T06:33:49.587Z,12.07
2022-09-07T06:36:19.750Z,10.30
2022-09-07T06:38:48.286Z,9.88
2022-09-07T06:44:07.528Z,7.05
2022-09-07T06:49:23.868Z,9.35
2022-09-07T06:51:52.184Z,9.27
2022-09-07T06:57:09.914Z,6.63
2022-09-07T06:59:38.665Z,8.93
2022-09-07T07:02:07.015Z,6.80
2022-09-07T07:04:40.212Z,9.43
2022-09-07T07:07:11.670Z,10.38
2022-09-07T07:09:39.862Z,9.93
2022-09-07T07:12:09.613Z,9.68
2022-09-07T07:14:41.066Z,9.57
2022-09-07T07:17:12.549Z,8.23
2022-09-07T07:19:40.321Z,7.90
2022-09-07T07:22:23.942Z,14.95
2022-09-07T07:24:56.148Z,11.27
2022-09-07T07:27:25.214Z,15.50
2022-09-07T07:29:53.872Z,9.32
2022-09-07T07:32:22.005Z,13.05
2022-09-07T07:34:50.052Z,8.95
2022-09-07T07:37:17.781Z,10.52
2022-09-07T07:42:38.373Z,11.02
2022-09-07T07:47:55.207Z,12.38
2022-09-07T07:50:31.732Z,11.98
2022-09-07T07:55:48.804Z,9.13
2022-09-07T07:58:18.312Z,13.68
2022-09-07T08:00:55.635Z,14.10
2022-09-07T08:03:25.863Z,14.30
2022-09-07T08:05:53.935Z,11.40
2022-09-07T08:08:22.942Z,9.80
2022-09-07T08:10:51.181Z,11.65
2022-09-07T08:13:21.344Z,12.48
2022-09-07T08:15:49.293Z,8.45
2022-09-07T08:18:18.617Z,15.98
2022-09-07T08:20:46.392Z,10.90
2022-09-07T08:23:15.188Z,11.55
2022-09-07T08:25:51.492Z,10.60
2022-09-07T08:28:21.202Z,10.85
2022-09-07T08:30:49.357Z,12.88
2022-09-07T08:33:17.476Z,8.35
2022-09-07T08:35:55.502Z,10.45
2022-09-07T08:38:23.656Z,10.05
2022-09-07T08:40:51.970Z,10.82
2022-09-07T08:43:47.130Z,14.95
2022-09-07T08:46:27.633Z,10.88
2022-09-07T08:48:58.312Z,12.50
2022-09-07T08:51:37.226Z,13.60
2022-09-07T08:54:06.971Z,19.38
2022-09-07T08:56:39.287Z,11.30
2022-09-07T08:59:19.463Z,13.20
2022-09-07T09:02:27.024Z,12.95
2022-09-07T09:05:16.260Z,13.15
2022-09-07T09:07:31.717Z,7.78
2022-09-07T09:10:12.932Z,16.75
2022-09-07T09:12:56.110Z,11.32
2022-09-07T09:15:35.457Z,8.73
2022-09-07T09:18:14.512Z,10.05
2022-09-07T09:20:46.900Z,20.17
2022-09-07T09:23:17.138Z,7.90
2022-09-07T09:25:52.849Z,12.55
2022-09-07T09:28:20.925Z,11.88
2022-09-07T09:30:50.342Z,18.70
2022-09-07T09:33:20.887Z,11.40
2022-09-07T09:35:50.989Z,11.88
2022-09-07T09:38:31.911Z,7.85
2022-09-07T09:41:04.124Z,13.57
2022-09-07T09:43:44.487Z,7.47
2022-09-07T09:46:23.806Z,12.20
2022-09-07T09:48:56.846Z,10.15
2022-09-07T09:54:24.563Z,12.20
2022-09-07T09:56:53.376Z,11.75
2022-09-07T10:05:28.520Z,9.05
2022-09-07T10:07:57.263Z,10.85
2022-09-07T10:10:27.301Z,8.20
2022-09-07T10:12:56.332Z,8.45
2022-09-07T10:15:39.638Z,10.10
2022-09-07T10:18:19.385Z,11.68
2022-09-07T10:20:47.289Z,11.18
2022-09-07T10:23:23.175Z,11.82
2022-09-07T10:25:51.345Z,17.90
2022-09-07T10:28:21.151Z,9.00
2022-09-07T10:31:14.686Z,9.93
2022-09-07T10:36:45.120Z,10.98
2022-09-07T10:39:17.136Z,9.73
2022-09-07T10:41:52.629Z,9.13
2022-09-07T10:44:34.130Z,8.20
2022-09-07T10:47:05.985Z,13.20
2022-09-07T10:50:21.790Z,7.70
2022-09-07T10:52:42.741Z,8.93
2022-09-07T10:55:16.806Z,7.45
2022-09-07T10:57:58.412Z,9.65
2022-09-07T11:00:31.493Z,7.82
2022-09-07T11:03:25.343Z,8.35
2022-09-07T11:06:06.408Z,10.00
2022-09-07T11:14:28.346Z,9.95
2022-09-07T11:17:01.114Z,7.35
2022-09-07T11:19:35.941Z,8.05
2022-09-07T11:22:18.218Z,9.85
2022-09-07T11:27:43.443Z,7.38
2022-09-07T11:30:19.983Z,8.35
2022-09-07T11:32:56.369Z,14.50
2022-09-07T11:35:35.262Z,12.57
2022-09-07T11:38:14.735Z,11.75
2022-09-07T11:40:51.205Z,9.30
2022-09-07T11:43:23.598Z,10.07
2022-09-07T11:45:55.430Z,6.60
2022-09-07T11:48:30.721Z,10.90
2022-09-07T11:51:04.161Z,7.57
2022-09-07T11:53:37.845Z,7.60
2022-09-07T11:56:13.127Z,11.52
2022-09-07T11:58:58.449Z,8.73
2022-09-07T12:01:39.406Z,5.90
2022-09-07T12:04:29.625Z,5.40
2022-09-07T12:07:26.933Z,8.45
2022-09-07T12:10:23.511Z,5.53
2022-09-07T12:13:06.099Z,12.82
2022-09-07T12:15:45.077Z,7.95
2022-09-07T12:18:27.630Z,8.27
2022-09-07T12:20:55.993Z,7.05
2022-09-07T12:23:30.056Z,6.78
2022-09-07T12:26:35.459Z,5.95
2022-09-07T12:29:21.474Z,7.70
2022-09-07T12:32:07.853Z,5.90
2022-09-07T12:35:01.582Z,5.15
2022-09-07T12:37:43.343Z,5.88
2022-09-07T12:43:31.245Z,5.63
2022-09-07T12:46:01.716Z,6.53
2022-09-07T12:48:44.348Z,4.80
2022-09-07T12:54:20.322Z,8.00
2022-09-07T13:00:05.087Z,6.70
2022-09-07T13:02:55.307Z,5.35
2022-09-07T13:05:41.576Z,9.02
2022-09-07T13:08:34.664Z,6.30
2022-09-07T13:11:17.831Z,7.28
2022-09-07T13:14:06.269Z,5.85
2022-09-07T13:20:04.277Z,7.45
2022-09-07T13:23:08.837Z,8.18
2022-09-07T13:25:46.325Z,8.05
2022-09-07T13:28:25.383Z,6.38
2022-09-07T13:31:07.408Z,4.95
2022-09-07T13:33:48.090Z,7.93
2022-09-07T13:36:27.129Z,5.10
2022-09-07T13:38:56.688Z,6.30
2022-09-07T13:41:38.077Z,9.85
2022-09-07T13:46:51.738Z,6.78
2022-09-07T13:49:35.294Z,9.23
2022-09-07T13:52:08.317Z,4.78
2022-09-07T13:54:51.664Z,10.40
2022-09-07T13:57:27.378Z,5.50
2022-09-07T13:59:55.987Z,4.60
2022-09-07T14:02:27.054Z,7.00
2022-09-07T14:04:57.281Z,10.45
2022-09-07T14:07:27.882Z,5.53
2022-09-07T14:10:12.956Z,5.22
2022-09-07T14:12:46.099Z,10.20
2022-09-07T14:15:22.897Z,7.47
2022-09-07T14:18:01.514Z,6.55
2022-09-07T14:20:29.541Z,6.18
2022-09-07T14:22:57.645Z,6.28
2022-09-07T14:25:27.176Z,5.47
2022-09-07T14:27:56.870Z,6.60
2022-09-07T14:30:28.974Z,7.68
2022-09-07T14:33:00.851Z,4.75
2022-09-07T14:35:34.426Z,6.85
2022-09-07T14:38:08.267Z,5.95
2022-09-07T14:40:38.073Z,11.68
2022-09-07T14:43:27.945Z,7.68
2022-09-07T14:46:13.142Z,5.72
2022-09-07T14:48:42.043Z,5.20
2022-09-07T14:51:29.504Z,7.20
2022-09-07T14:54:00.805Z,7.45
2022-09-07T14:56:33.782Z,4.63
2022-09-07T14:59:01.520Z,6.28
2022-09-07T15:01:37.895Z,6.65
2022-09-07T15:04:17.896Z,9.82
2022-09-07T15:07:02.214Z,9.63
2022-09-07T15:09:35.897Z,8.02
2022-09-07T15:12:17.610Z,5.40
2022-09-07T15:20:38.679Z,4.97
2022-09-07T15:23:11.189Z,10.10
2022-09-07T15:25:40.717Z,6.85
2022-09-07T15:33:59.913Z,9.25
2022-09-07T15:36:28.818Z,9.25
2022-09-07T15:39:04.400Z,11.27
2022-09-07T15:41:32.713Z,9.20
2022-09-07T15:44:01.754Z,7.35
2022-09-07T15:46:29.549Z,8.70
2022-09-07T15:48:58.276Z,7.63
2022-09-07T15:54:16.638Z,16.20
2022-09-07T15:57:48.422Z,11.65
2022-09-07T15:59:34.867Z,13.75
2022-09-07T16:02:02.819Z,19.13
2022-09-07T16:04:31.198Z,27.83
2022-09-07T16:07:01.709Z,6.93
2022-09-07T16:09:29.567Z,13.38
2022-09-07T16:12:59.937Z,11.10
2022-09-07T16:14:47.249Z,15.13
2022-09-07T16:20:03.940Z,9.63
2022-09-07T16:25:20.042Z,14.18
2022-09-07T16:27:47.984Z,21.73
2022-09-07T16:30:17.088Z,14.30
2022-09-07T16:32:45.269Z,16.80
2022-09-07T16:35:13.161Z,18.10
2022-09-07T16:38:43.726Z,12.77
2022-09-07T16:40:29.230Z,10.50
2022-09-07T16:42:56.932Z,8.00
2022-09-07T16:48:16.336Z,8.70
2022-09-07T16:51:00.393Z,16.48
2022-09-07T16:53:30.046Z,18.63
2022-09-07T16:56:01.614Z,15.00
2022-09-07T16:58:38.288Z,18.05
2022-09-07T17:01:09.360Z,25.25
2022-09-07T17:03:37.576Z,15.63
2022-09-07T17:06:07.625Z,47.95
2022-09-07T17:08:36.905Z,46.65
2022-09-07T17:11:06.757Z,11.95
2022-09-07T17:13:35.510Z,16.40
2022-09-07T17:16:04.136Z,23.55
2022-09-07T17:21:22.826Z,22.05
2022-09-07T17:23:55.214Z,11.45
2022-09-07T17:26:27.044Z,15.38
2022-09-07T17:29:00.080Z,16.08
2022-09-07T17:34:20.830Z,15.10
2022-09-07T17:36:48.810Z,10.57
2022-09-07T17:39:18.805Z,11.75
2022-09-07T17:41:47.714Z,11.68
2022-09-07T17:44:16.576Z,11.18
2022-09-07T17:46:44.790Z,13.90
2022-09-07T17:49:14.351Z,31.02
2022-09-07T17:51:43.990Z,17.08
2022-09-07T17:54:13.763Z,11.90
2022-09-07T17:56:42.404Z,12.20
2022-09-07T18:01:59.653Z,20.77
2022-09-07T18:04:28.529Z,17.48
2022-09-07T18:06:57.917Z,13.93
2022-09-07T18:09:25.725Z,13.57
2022-09-07T18:11:53.838Z,14.77
2022-09-07T18:14:21.577Z,21.00
2022-09-07T18:16:51.094Z,18.85
2022-09-07T18:19:19.805Z,12.85
2022-09-07T18:21:48.641Z,24.83
2022-09-07T18:24:21.005Z,15.50
2022-09-07T18:26:52.089Z,17.88
2022-09-07T18:29:37.523Z,11.13
2022-09-07T18:32:08.925Z,14.90
2022-09-07T18:34:41.143Z,17.90
2022-09-07T18:37:12.046Z,14.57
2022-09-07T18:39:41.618Z,27.52
2022-09-07T18:42:10.025Z,19.95
2022-09-07T18:47:28.863Z,46.83
2022-09-07T18:49:58.964Z,28.13
2022-09-07T18:55:17.153Z,32.08
2022-09-07T18:57:45.339Z,43.72
2022-09-07T19:00:14.047Z,28.02
2022-09-07T19:02:42.255Z,26.48
2022-09-07T19:08:03.135Z,29.52
2022-09-07T19:10:35.041Z,24.50
2022-09-07T19:13:03.842Z,19.48
2022-09-07T19:15:37.129Z,17.67
2022-09-07T19:18:08.293Z,19.13
2022-09-07T19:20:37.025Z,18.35
2022-09-07T19:23:05.151Z,26.25
2022-09-07T19:25:34.702Z,25.90
2022-09-07T19:28:02.502Z,28.42
2022-09-07T19:30:30.422Z,28.42
2022-09-07T19:33:03.364Z,34.35
2022-09-07T19:35:36.059Z,28.95
2022-09-07T19:38:04.672Z,29.02
2022-09-07T19:40:33.913Z,25.58
2022-09-07T19:43:01.840Z,25.90
2022-09-07T19:45:30.202Z,18.90
2022-09-07T19:47:58.054Z,29.27
2022-09-07T19:50:25.956Z,24.63
2022-09-07T19:52:54.084Z,23.45
2022-09-07T19:55:21.785Z,19.52
2022-09-07T19:57:51.994Z,22.90
2022-09-07T20:00:20.277Z,23.92
2022-09-07T20:02:49.162Z,23.25
2022-09-07T20:05:17.633Z,26.48
2022-09-07T20:07:45.893Z,20.88
2022-09-07T20:10:13.749Z,24.60
2022-09-07T20:12:41.689Z,22.08
2022-09-07T20:15:11.602Z,18.85
2022-09-07T20:17:39.444Z,19.50
2022-09-07T20:20:08.271Z,22.00
2022-09-07T20:22:36.301Z,19.95
2022-09-07T20:25:04.413Z,18.65
2022-09-07T20:27:35.659Z,24.48
2022-09-07T20:30:04.144Z,20.83
2022-09-07T20:32:33.229Z,23.67
2022-09-07T20:35:01.419Z,25.70
2022-09-07T20:37:29.482Z,22.90
2022-09-07T20:39:57.260Z,23.90
2022-09-07T20:42:25.021Z,26.40
2022-09-07T20:44:53.508Z,25.23
2022-09-07T20:47:21.283Z,22.55
2022-09-07T20:49:52.150Z,24.02
2022-09-07T20:52:20.421Z,19.80
2022-09-07T20:54:48.129Z,26.00
2022-09-07T20:57:15.863Z,25.55
2022-09-07T20:59:43.983Z,24.70
2022-09-07T21:02:11.726Z,28.48
2022-09-07T21:04:39.931Z,24.42
2022-09-07T21:07:09.665Z,29.65
2022-09-07T21:09:37.344Z,30.95
2022-09-07T21:12:05.277Z,26.40
2022-09-07T21:14:33.281Z,35.72
2022-09-07T21:17:01.080Z,26.75
2022-09-07T21:19:28.842Z,24.30
2022-09-07T21:21:57.063Z,24.85
2022-09-07T21:24:26.421Z,28.13
2022-09-07T21:26:54.222Z,30.90
2022-09-07T21:29:24.341Z,25.42
2022-09-07T21:31:54.236Z,31.40
2022-09-07T21:34:22.521Z,25.85
2022-09-07T21:36:50.570Z,27.35
2022-09-07T21:39:19.180Z,22.30
2022-09-07T21:41:48.378Z,24.75
2022-09-07T21:44:17.298Z,32.75
2022-09-07T21:46:45.519Z,30.45
2022-09-07T21:49:13.776Z,26.50
2022-09-07T21:51:42.088Z,31.23
2022-09-07T21:54:10.572Z,32.25
2022-09-07T21:56:41.014Z,31.02
2022-09-07T21:59:12.828Z,29.17
2022-09-07T22:01:41.154Z,29.27
2022-09-07T22:04:09.061Z,26.88
2022-09-07T22:06:37.620Z,35.70
2022-09-07T22:09:05.932Z,32.65
2022-09-07T22:11:33.809Z,30.58
2022-09-07T22:14:04.411Z,31.45
2022-09-07T22:16:35.198Z,27.95
2022-09-07T22:19:03.453Z,30.57
2022-09-07T22:21:32.050Z,34.58
2022-09-07T22:24:02.061Z,31.48
2022-09-07T22:26:32.480Z,35.92
2022-09-07T22:29:01.074Z,36.45
2022-09-07T22:31:31.700Z,29.73
2022-09-07T22:34:55.510Z,38.30
2022-09-07T22:37:24.791Z,30.33
2022-09-07T22:39:53.766Z,33.88
2022-09-07T22:42:21.424Z,37.33
2022-09-07T22:44:49.088Z,35.17
2022-09-07T22:47:17.093Z,38.42
2022-09-07T22:49:44.768Z,40.33
2022-09-07T22:52:12.622Z,35.55
2022-09-07T22:54:41.917Z,39.65
2022-09-07T22:57:09.969Z,46.15
2022-09-07T22:59:37.850Z,38.92
2022-09-07T23:02:05.868Z,43.05
2022-09-07T23:04:33.657Z,34.90
2022-09-07T23:07:01.499Z,33.83
2022-09-07T23:09:29.721Z,38.47
2022-09-07T23:11:58.706Z,39.40
2022-09-07T23:14:26.526Z,34.13
2022-09-07T23:16:54.670Z,35.28
2022-09-07T23:19:22.424Z,39.50
2022-09-07T23:21:50.109Z,34.35
2022-09-07T23:24:19.311Z,40.55
2022-09-07T23:26:47.554Z,40.53
2022-09-07T23:29:16.942Z,36.95
2022-09-07T23:31:46.407Z,35.70
2022-09-07T23:34:14.164Z,39.60
2022-09-07T23:36:41.944Z,41.97
2022-09-07T23:39:10.521Z,38.22
2022-09-07T23:41:38.169Z,37.30
2022-09-07T23:44:06.151Z,37.55
2022-09-07T23:46:36.042Z,34.78
2022-09-07T23:49:03.948Z,33.05
2022-09-07T23:51:31.631Z,35.17
2022-09-07T23:53:59.752Z,33.42
2022-09-07T23:56:27.992Z,36.83
2022-09-07T23:58:55.663Z,39.63
